sensor_id;sensor_type;location;lat;lon;timestamp;pressure;altitude;pressure_sealevel;temperature;humidity
77626;BME280;66794;43.764;10.436;2023-02-01T00:02:01;102572.94;;;3.54;88.75
77626;BME280;66794;43.764;10.436;2023-02-01T00:04:26;102589.78;;;3.56;89.77
77626;BME280;66794;43.764;10.436;2023-02-01T00:06:52;102559.78;;;3.34;89.91
77626;BME280;66794;43.764;10.436;2023-02-01T00:09:18;102579.75;;;3.60;90.30
77626;BME280;66794;43.764;10.436;2023-02-01T00:11:43;102580.28;;;3.66;89.79
77626;BME280;66794;43.764;10.436;2023-02-01T00:14:09;102581.31;;;3.48;88.09
77626;BME280;66794;43.764;10.436;2023-02-01T00:16:35;102586.41;;;3.68;87.89
77626;BME280;66794;43.764;10.436;2023-02-01T00:19:07;102589.19;;;3.67;88.62
77626;BME280;66794;43.764;10.436;2023-02-01T00:21:33;102572.66;;;3.75;89.02
77626;BME280;66794;43.764;10.436;2023-02-01T00:23:59;102572.72;;;3.89;88.38
77626;BME280;66794;43.764;10.436;2023-02-01T00:26:36;102579.50;;;3.64;87.35
77626;BME280;66794;43.764;10.436;2023-02-01T00:29:04;102547.25;;;3.50;88.24
77626;BME280;66794;43.764;10.436;2023-02-01T00:31:30;102568.94;;;3.93;87.53
77626;BME280;66794;43.764;10.436;2023-02-01T00:33:55;102518.44;;;3.85;87.31
77626;BME280;66794;43.764;10.436;2023-02-01T00:36:21;102555.56;;;4.07;85.96
77626;BME280;66794;43.764;10.436;2023-02-01T00:38:47;102574.56;;;4.18;87.04
77626;BME280;66794;43.764;10.436;2023-02-01T00:41:15;102581.66;;;4.49;87.08
77626;BME280;66794;43.764;10.436;2023-02-01T00:43:42;102567.66;;;4.30;85.28
77626;BME280;66794;43.764;10.436;2023-02-01T00:46:09;102575.09;;;4.25;86.71
77626;BME280;66794;43.764;10.436;2023-02-01T00:48:34;102564.59;;;4.36;87.17
77626;BME280;66794;43.764;10.436;2023-02-01T00:51:01;102581.81;;;4.32;89.35
77626;BME280;66794;43.764;10.436;2023-02-01T00:53:26;102523.84;;;4.00;87.86
77626;BME280;66794;43.764;10.436;2023-02-01T00:55:52;102585.09;;;4.37;87.19
77626;BME280;66794;43.764;10.436;2023-02-01T00:58:17;102584.66;;;4.29;87.60
77626;BME280;66794;43.764;10.436;2023-02-01T01:00:43;102567.19;;;4.08;88.03
77626;BME280;66794;43.764;10.436;2023-02-01T01:03:09;102573.59;;;3.58;88.87
77626;BME280;66794;43.764;10.436;2023-02-01T01:05:47;102540.09;;;3.35;90.08
77626;BME280;66794;43.764;10.436;2023-02-01T01:08:14;102576.13;;;3.45;91.01
77626;BME280;66794;43.764;10.436;2023-02-01T01:10:40;102574.28;;;3.30;90.14
77626;BME280;66794;43.764;10.436;2023-02-01T01:13:06;102576.13;;;3.92;87.91
77626;BME280;66794;43.764;10.436;2023-02-01T01:15:36;102569.28;;;3.87;87.51
77626;BME280;66794;43.764;10.436;2023-02-01T01:18:01;102574.22;;;3.63;88.59
77626;BME280;66794;43.764;10.436;2023-02-01T01:20:27;102569.03;;;3.44;91.45
77626;BME280;66794;43.764;10.436;2023-02-01T01:22:52;102571.72;;;3.76;91.04
77626;BME280;66794;43.764;10.436;2023-02-01T01:25:18;102571.38;;;3.82;89.60
77626;BME280;66794;43.764;10.436;2023-02-01T01:27:43;102568.00;;;3.78;89.11
77626;BME280;66794;43.764;10.436;2023-02-01T01:30:09;102563.69;;;3.60;89.92
77626;BME280;66794;43.764;10.436;2023-02-01T01:32:35;102564.03;;;3.54;89.31
77626;BME280;66794;43.764;10.436;2023-02-01T01:35:00;102558.13;;;3.94;89.45
77626;BME280;66794;43.764;10.436;2023-02-01T01:37:26;102532.06;;;3.96;90.39
77626;BME280;66794;43.764;10.436;2023-02-01T01:39:51;102527.00;;;3.92;88.59
77626;BME280;66794;43.764;10.436;2023-02-01T01:42:16;102554.94;;;3.72;88.67
77626;BME280;66794;43.764;10.436;2023-02-01T01:45:04;102480.88;;;2.92;90.06
77626;BME280;66794;43.764;10.436;2023-02-01T01:47:43;102559.78;;;3.50;92.01
77626;BME280;66794;43.764;10.436;2023-02-01T01:50:13;102518.56;;;3.21;92.68
77626;BME280;66794;43.764;10.436;2023-02-01T01:52:43;102517.91;;;3.49;91.90
77626;BME280;66794;43.764;10.436;2023-02-01T01:55:11;102543.72;;;3.81;90.37
77626;BME280;66794;43.764;10.436;2023-02-01T01:57:39;102539.09;;;3.83;89.83
77626;BME280;66794;43.764;10.436;2023-02-01T02:00:09;102534.81;;;3.81;89.73
77626;BME280;66794;43.764;10.436;2023-02-01T02:02:37;102529.50;;;3.95;89.62
77626;BME280;66794;43.764;10.436;2023-02-01T02:05:04;102511.38;;;3.68;90.80
77626;BME280;66794;43.764;10.436;2023-02-01T02:07:34;102527.94;;;3.91;92.13
77626;BME280;66794;43.764;10.436;2023-02-01T02:10:03;102526.97;;;4.08;91.29
77626;BME280;66794;43.764;10.436;2023-02-01T02:12:31;102535.13;;;4.20;91.72
77626;BME280;66794;43.764;10.436;2023-02-01T02:14:57;102513.47;;;4.23;90.82
77626;BME280;66794;43.764;10.436;2023-02-01T02:23:16;102520.81;;;4.06;89.35
77626;BME280;66794;43.764;10.436;2023-02-01T02:36:40;102525.03;;;3.64;93.04
77626;BME280;66794;43.764;10.436;2023-02-01T02:39:23;102528.84;;;3.76;92.08
77626;BME280;66794;43.764;10.436;2023-02-01T02:44:47;102520.81;;;4.06;89.57
77626;BME280;66794;43.764;10.436;2023-02-01T02:56:28;102490.66;;;3.40;91.13
77626;BME280;66794;43.764;10.436;2023-02-01T02:59:18;102480.03;;;3.55;91.18
77626;BME280;66794;43.764;10.436;2023-02-01T03:02:04;102517.22;;;3.91;89.52
77626;BME280;66794;43.764;10.436;2023-02-01T03:04:52;102517.88;;;3.64;90.25
77626;BME280;66794;43.764;10.436;2023-02-01T03:07:52;102522.28;;;3.50;91.18
77626;BME280;66794;43.764;10.436;2023-02-01T03:13:06;102528.59;;;3.33;90.77
77626;BME280;66794;43.764;10.436;2023-02-01T03:15:37;102533.09;;;3.16;92.29
77626;BME280;66794;43.764;10.436;2023-02-01T03:18:12;102513.81;;;3.10;92.01
77626;BME280;66794;43.764;10.436;2023-02-01T03:20:40;102533.09;;;3.48;91.42
77626;BME280;66794;43.764;10.436;2023-02-01T03:23:10;102540.41;;;3.92;88.01
77626;BME280;66794;43.764;10.436;2023-02-01T03:25:37;102531.75;;;4.03;86.45
77626;BME280;66794;43.764;10.436;2023-02-01T03:28:09;102477.72;;;3.79;85.74
77626;BME280;66794;43.764;10.436;2023-02-01T03:30:40;102539.63;;;4.20;84.92
77626;BME280;66794;43.764;10.436;2023-02-01T03:33:10;102540.66;;;4.17;84.46
77626;BME280;66794;43.764;10.436;2023-02-01T03:38:32;102528.00;;;4.05;84.09
77626;BME280;66794;43.764;10.436;2023-02-01T03:41:15;102537.13;;;4.17;84.77
77626;BME280;66794;43.764;10.436;2023-02-01T03:43:51;102490.56;;;4.04;82.06
77626;BME280;66794;43.764;10.436;2023-02-01T03:46:28;102530.00;;;4.32;83.33
77626;BME280;66794;43.764;10.436;2023-02-01T03:49:00;102501.50;;;3.85;84.06
77626;BME280;66794;43.764;10.436;2023-02-01T03:51:28;102505.84;;;3.72;85.46
77626;BME280;66794;43.764;10.436;2023-02-01T03:53:55;102533.59;;;4.16;83.56
77626;BME280;66794;43.764;10.436;2023-02-01T03:56:23;102537.34;;;4.28;81.58
77626;BME280;66794;43.764;10.436;2023-02-01T03:58:50;102536.69;;;4.25;81.69
77626;BME280;66794;43.764;10.436;2023-02-01T04:01:29;102503.22;;;4.16;81.27
77626;BME280;66794;43.764;10.436;2023-02-01T04:03:56;102512.91;;;3.88;83.43
77626;BME280;66794;43.764;10.436;2023-02-01T04:06:22;102536.78;;;3.77;85.68
77626;BME280;66794;43.764;10.436;2023-02-01T04:08:47;102515.53;;;3.58;86.25
77626;BME280;66794;43.764;10.436;2023-02-01T04:11:12;102521.59;;;3.62;87.06
77626;BME280;66794;43.764;10.436;2023-02-01T04:13:38;102544.63;;;3.80;87.59
77626;BME280;66794;43.764;10.436;2023-02-01T04:16:03;102506.03;;;3.53;87.44
77626;BME280;66794;43.764;10.436;2023-02-01T04:18:29;102544.97;;;3.90;86.42
77626;BME280;66794;43.764;10.436;2023-02-01T04:20:54;102552.50;;;3.99;87.09
77626;BME280;66794;43.764;10.436;2023-02-01T04:23:20;102537.63;;;3.93;87.13
77626;BME280;66794;43.764;10.436;2023-02-01T04:25:45;102538.81;;;4.04;86.72
77626;BME280;66794;43.764;10.436;2023-02-01T04:28:11;102528.72;;;4.23;85.69
77626;BME280;66794;43.764;10.436;2023-02-01T04:30:36;102498.72;;;4.16;84.68
77626;BME280;66794;43.764;10.436;2023-02-01T04:33:02;102535.75;;;4.40;85.05
77626;BME280;66794;43.764;10.436;2023-02-01T04:35:30;102541.59;;;4.32;84.95
77626;BME280;66794;43.764;10.436;2023-02-01T04:37:56;102539.97;;;4.44;85.19
77626;BME280;66794;43.764;10.436;2023-02-01T04:40:21;102519.63;;;3.95;86.88
77626;BME280;66794;43.764;10.436;2023-02-01T04:42:47;102543.28;;;4.19;87.07
77626;BME280;66794;43.764;10.436;2023-02-01T04:45:12;102551.38;;;3.87;87.99
77626;BME280;66794;43.764;10.436;2023-02-01T04:47:38;102557.00;;;3.99;89.69
77626;BME280;66794;43.764;10.436;2023-02-01T04:50:04;102509.03;;;3.78;89.91
77626;BME280;66794;43.764;10.436;2023-02-01T04:52:31;102551.44;;;4.02;89.84
77626;BME280;66794;43.764;10.436;2023-02-01T04:54:56;102518.94;;;4.08;89.60
77626;BME280;66794;43.764;10.436;2023-02-01T04:57:24;102552.84;;;4.23;89.51
77626;BME280;66794;43.764;10.436;2023-02-01T04:59:50;102547.84;;;4.17;88.97
77626;BME280;66794;43.764;10.436;2023-02-01T05:02:15;102553.56;;;3.65;91.00
77626;BME280;66794;43.764;10.436;2023-02-01T05:04:41;102557.38;;;3.77;91.14
77626;BME280;66794;43.764;10.436;2023-02-01T05:07:06;102542.66;;;3.52;92.99
77626;BME280;66794;43.764;10.436;2023-02-01T05:09:32;102543.03;;;3.62;92.73
77626;BME280;66794;43.764;10.436;2023-02-01T05:11:57;102556.41;;;3.62;92.86
77626;BME280;66794;43.764;10.436;2023-02-01T05:14:41;102560.78;;;3.94;91.32
77626;BME280;66794;43.764;10.436;2023-02-01T05:17:07;102527.28;;;3.87;90.86
77626;BME280;66794;43.764;10.436;2023-02-01T05:19:32;102574.47;;;4.36;88.88
77626;BME280;66794;43.764;10.436;2023-02-01T05:21:58;102560.03;;;4.53;88.29
77626;BME280;66794;43.764;10.436;2023-02-01T05:24:23;102538.34;;;4.41;87.76
77626;BME280;66794;43.764;10.436;2023-02-01T05:26:49;102554.81;;;4.35;89.55
77626;BME280;66794;43.764;10.436;2023-02-01T05:29:16;102568.31;;;4.34;91.38
77626;BME280;66794;43.764;10.436;2023-02-01T05:31:44;102521.44;;;3.95;92.16
77626;BME280;66794;43.764;10.436;2023-02-01T05:34:10;102566.16;;;3.94;93.63
77626;BME280;66794;43.764;10.436;2023-02-01T05:36:36;102567.22;;;3.92;93.63
77626;BME280;66794;43.764;10.436;2023-02-01T05:39:02;102568.22;;;4.35;92.41
77626;BME280;66794;43.764;10.436;2023-02-01T05:41:28;102574.00;;;4.13;93.05
77626;BME280;66794;43.764;10.436;2023-02-01T05:43:53;102569.13;;;4.20;93.81
77626;BME280;66794;43.764;10.436;2023-02-01T05:46:19;102572.44;;;4.39;92.28
77626;BME280;66794;43.764;10.436;2023-02-01T05:48:44;102575.63;;;4.46;92.27
77626;BME280;66794;43.764;10.436;2023-02-01T05:51:10;102566.91;;;4.42;89.90
77626;BME280;66794;43.764;10.436;2023-02-01T05:53:36;102547.59;;;4.21;90.78
77626;BME280;66794;43.764;10.436;2023-02-01T05:56:02;102555.44;;;4.55;90.20
77626;BME280;66794;43.764;10.436;2023-02-01T05:58:30;102573.75;;;4.62;90.51
77626;BME280;66794;43.764;10.436;2023-02-01T06:00:59;102561.00;;;4.52;90.70
77626;BME280;66794;43.764;10.436;2023-02-01T06:03:25;102527.69;;;4.26;89.59
77626;BME280;66794;43.764;10.436;2023-02-01T06:05:50;102552.91;;;4.37;91.08
77626;BME280;66794;43.764;10.436;2023-02-01T06:08:16;102568.88;;;4.69;90.36
77626;BME280;66794;43.764;10.436;2023-02-01T06:10:42;102569.94;;;4.81;89.58
77626;BME280;66794;43.764;10.436;2023-02-01T06:13:08;102576.44;;;4.62;90.45
77626;BME280;66794;43.764;10.436;2023-02-01T06:15:33;102529.91;;;4.03;92.74
77626;BME280;66794;43.764;10.436;2023-02-01T06:17:59;102524.00;;;4.12;92.75
77626;BME280;66794;43.764;10.436;2023-02-01T06:20:24;102539.63;;;4.20;93.08
77626;BME280;66794;43.764;10.436;2023-02-01T06:22:50;102540.47;;;4.51;91.79
77626;BME280;66794;43.764;10.436;2023-02-01T06:25:15;102578.66;;;4.70;91.34
77626;BME280;66794;43.764;10.436;2023-02-01T06:27:42;102563.75;;;4.50;92.57
77626;BME280;66794;43.764;10.436;2023-02-01T06:30:08;102569.06;;;4.66;92.02
77626;BME280;66794;43.764;10.436;2023-02-01T06:32:33;102569.25;;;4.63;91.97
77626;BME280;66794;43.764;10.436;2023-02-01T06:34:59;102572.63;;;4.81;91.70
77626;BME280;66794;43.764;10.436;2023-02-01T06:37:25;102534.16;;;4.66;91.43
77626;BME280;66794;43.764;10.436;2023-02-01T06:39:52;102539.72;;;4.63;91.41
77626;BME280;66794;43.764;10.436;2023-02-01T06:42:18;102557.06;;;4.71;91.90
77626;BME280;66794;43.764;10.436;2023-02-01T06:44:43;102554.97;;;4.77;91.46
77626;BME280;66794;43.764;10.436;2023-02-01T06:47:09;102579.44;;;4.86;91.04
77626;BME280;66794;43.764;10.436;2023-02-01T06:49:34;102545.75;;;4.52;91.99
77626;BME280;66794;43.764;10.436;2023-02-01T06:52:00;102576.00;;;4.84;91.15
77626;BME280;66794;43.764;10.436;2023-02-01T06:54:26;102589.22;;;4.87;92.72
77626;BME280;66794;43.764;10.436;2023-02-01T06:56:51;102557.03;;;5.98;99.12
77626;BME280;66794;43.764;10.436;2023-02-01T06:59:17;102521.31;;;4.99;90.74
77626;BME280;66794;43.764;10.436;2023-02-01T07:01:42;102575.09;;;5.26;89.99
77626;BME280;66794;43.764;10.436;2023-02-01T07:04:10;102567.72;;;5.16;89.23
77626;BME280;66794;43.764;10.436;2023-02-01T07:06:36;102568.31;;;5.07;89.17
77626;BME280;66794;43.764;10.436;2023-02-01T07:09:01;102596.53;;;5.28;86.85
77626;BME280;66794;43.764;10.436;2023-02-01T07:11:27;102555.28;;;5.00;85.23
77626;BME280;66794;43.764;10.436;2023-02-01T07:13:53;102592.88;;;5.15;84.18
77626;BME280;66794;43.764;10.436;2023-02-01T07:16:19;102592.44;;;6.32;81.10
77626;BME280;66794;43.764;10.436;2023-02-01T07:18:45;102585.84;;;5.55;83.10
77626;BME280;66794;43.764;10.436;2023-02-01T07:21:11;102595.25;;;5.48;83.48
77626;BME280;66794;43.764;10.436;2023-02-01T07:23:37;102584.72;;;5.45;83.11
77626;BME280;66794;43.764;10.436;2023-02-01T07:26:04;102583.09;;;5.28;83.81
77626;BME280;66794;43.764;10.436;2023-02-01T07:28:32;102603.59;;;5.43;83.68
77626;BME280;66794;43.764;10.436;2023-02-01T07:31:03;102601.13;;;5.40;84.52
77626;BME280;66794;43.764;10.436;2023-02-01T07:33:29;102594.50;;;5.32;85.05
77626;BME280;66794;43.764;10.436;2023-02-01T07:35:55;102586.31;;;5.47;85.32
77626;BME280;66794;43.764;10.436;2023-02-01T07:38:20;102564.19;;;5.15;87.29
77626;BME280;66794;43.764;10.436;2023-02-01T07:40:46;102598.38;;;5.69;86.02
77626;BME280;66794;43.764;10.436;2023-02-01T07:43:12;102599.34;;;5.68;85.10
77626;BME280;66794;43.764;10.436;2023-02-01T07:45:38;102603.50;;;5.86;85.43
77626;BME280;66794;43.764;10.436;2023-02-01T07:48:04;102611.47;;;5.61;85.98
77626;BME280;66794;43.764;10.436;2023-02-01T07:50:29;102598.34;;;5.83;86.06
77626;BME280;66794;43.764;10.436;2023-02-01T07:52:55;102600.53;;;5.91;86.74
77626;BME280;66794;43.764;10.436;2023-02-01T07:55:21;102602.44;;;6.03;86.45
77626;BME280;66794;43.764;10.436;2023-02-01T07:57:47;102581.28;;;5.70;87.21
77626;BME280;66794;43.764;10.436;2023-02-01T08:00:13;102600.06;;;5.84;85.71
77626;BME280;66794;43.764;10.436;2023-02-01T08:02:58;102616.00;;;6.01;86.27
77626;BME280;66794;43.764;10.436;2023-02-01T08:05:24;102567.78;;;5.57;86.24
77626;BME280;66794;43.764;10.436;2023-02-01T08:07:50;102630.41;;;6.00;85.99
77626;BME280;66794;43.764;10.436;2023-02-01T08:10:17;102622.03;;;5.91;86.16
77626;BME280;66794;43.764;10.436;2023-02-01T08:12:42;102622.94;;;5.91;86.19
77626;BME280;66794;43.764;10.436;2023-02-01T08:15:08;102597.38;;;5.84;86.69
77626;BME280;66794;43.764;10.436;2023-02-01T08:17:34;102621.91;;;6.21;87.18
77626;BME280;66794;43.764;10.436;2023-02-01T08:19:59;102607.88;;;6.16;86.50
77626;BME280;66794;43.764;10.436;2023-02-01T08:22:25;102618.78;;;6.27;86.43
77626;BME280;66794;43.764;10.436;2023-02-01T08:24:50;102625.88;;;6.28;88.23
77626;BME280;66794;43.764;10.436;2023-02-01T08:27:17;102623.19;;;6.28;87.35
77626;BME280;66794;43.764;10.436;2023-02-01T08:29:42;102594.28;;;5.90;88.63
77626;BME280;66794;43.764;10.436;2023-02-01T08:32:09;102595.63;;;5.97;88.62
77626;BME280;66794;43.764;10.436;2023-02-01T08:34:34;102628.13;;;5.80;90.28
77626;BME280;66794;43.764;10.436;2023-02-01T08:37:00;102600.13;;;6.11;90.77
77626;BME280;66794;43.764;10.436;2023-02-01T08:39:25;102598.03;;;6.02;91.08
77626;BME280;66794;43.764;10.436;2023-02-01T08:41:51;102585.34;;;6.04;90.65
77626;BME280;66794;43.764;10.436;2023-02-01T08:44:35;102609.06;;;6.24;90.67
77626;BME280;66794;43.764;10.436;2023-02-01T08:47:02;102592.91;;;6.12;91.08
77626;BME280;66794;43.764;10.436;2023-02-01T08:49:28;102616.56;;;6.46;89.51
77626;BME280;66794;43.764;10.436;2023-02-01T08:51:54;102597.94;;;6.43;89.31
77626;BME280;66794;43.764;10.436;2023-02-01T08:54:20;102585.78;;;6.50;89.20
77626;BME280;66794;43.764;10.436;2023-02-01T08:56:46;102601.44;;;6.58;89.56
77626;BME280;66794;43.764;10.436;2023-02-01T08:59:11;102547.91;;;6.53;86.63
77626;BME280;66794;43.764;10.436;2023-02-01T09:01:37;102578.88;;;6.46;86.85
77626;BME280;66794;43.764;10.436;2023-02-01T09:04:02;102607.03;;;6.68;87.24
77626;BME280;66794;43.764;10.436;2023-02-01T09:06:28;102554.78;;;6.57;84.96
77626;BME280;66794;43.764;10.436;2023-02-01T09:08:53;102597.88;;;6.83;86.55
77626;BME280;66794;43.764;10.436;2023-02-01T09:11:19;102610.09;;;7.01;86.69
77626;BME280;66794;43.764;10.436;2023-02-01T09:13:45;102566.63;;;6.68;86.66
77626;BME280;66794;43.764;10.436;2023-02-01T09:16:11;102574.19;;;6.88;85.21
77626;BME280;66794;43.764;10.436;2023-02-01T09:18:37;102572.56;;;7.11;85.37
77626;BME280;66794;43.764;10.436;2023-02-01T09:21:06;102582.59;;;7.09;84.73
77626;BME280;66794;43.764;10.436;2023-02-01T09:23:33;102620.31;;;7.22;85.65
77626;BME280;66794;43.764;10.436;2023-02-01T09:26:00;102545.34;;;6.65;87.09
77626;BME280;66794;43.764;10.436;2023-02-01T09:28:25;102613.00;;;7.24;86.61
77626;BME280;66794;43.764;10.436;2023-02-01T09:30:57;102592.72;;;7.18;87.48
77626;BME280;66794;43.764;10.436;2023-02-01T09:33:26;102612.41;;;7.44;87.01
77626;BME280;66794;43.764;10.436;2023-02-01T09:35:59;102618.25;;;7.51;87.12
77626;BME280;66794;43.764;10.436;2023-02-01T09:38:25;102582.94;;;7.54;85.76
77626;BME280;66794;43.764;10.436;2023-02-01T09:40:53;102595.34;;;7.93;84.52
77626;BME280;66794;43.764;10.436;2023-02-01T09:43:52;102625.38;;;8.12;83.40
77626;BME280;66794;43.764;10.436;2023-02-01T09:46:27;102611.97;;;7.87;84.02
77626;BME280;66794;43.764;10.436;2023-02-01T09:48:55;102611.50;;;7.93;85.75
77626;BME280;66794;43.764;10.436;2023-02-01T09:51:35;102588.22;;;7.92;83.32
77626;BME280;66794;43.764;10.436;2023-02-01T09:57:05;102593.75;;;8.38;80.36
77626;BME280;66794;43.764;10.436;2023-02-01T09:59:43;102626.41;;;8.71;79.87
77626;BME280;66794;43.764;10.436;2023-02-01T10:02:31;102603.38;;;9.00;78.52
77626;BME280;66794;43.764;10.436;2023-02-01T10:05:00;102593.53;;;8.88;77.29
77626;BME280;66794;43.764;10.436;2023-02-01T10:13:19;102611.81;;;8.95;80.42
77626;BME280;66794;43.764;10.436;2023-02-01T10:24:11;102607.44;;;9.28;81.73
77626;BME280;66794;43.764;10.436;2023-02-01T10:26:45;102558.53;;;9.42;80.24
77626;BME280;66794;43.764;10.436;2023-02-01T10:29:19;102606.63;;;9.93;79.87
77626;BME280;66794;43.764;10.436;2023-02-01T10:31:46;102589.63;;;10.02;78.75
77626;BME280;66794;43.764;10.436;2023-02-01T10:34:21;102605.94;;;9.80;79.07
77626;BME280;66794;43.764;10.436;2023-02-01T10:37:00;102578.22;;;9.88;78.13
77626;BME280;66794;43.764;10.436;2023-02-01T10:39:26;102599.03;;;9.87;79.45
77626;BME280;66794;43.764;10.436;2023-02-01T10:41:52;102571.41;;;10.05;79.05
77626;BME280;66794;43.764;10.436;2023-02-01T10:44:25;102548.16;;;10.02;78.84
77626;BME280;66794;43.764;10.436;2023-02-01T10:46:51;102584.50;;;10.20;79.24
77626;BME280;66794;43.764;10.436;2023-02-01T10:49:29;102579.38;;;10.17;79.21
77626;BME280;66794;43.764;10.436;2023-02-01T10:52:02;102547.84;;;10.16;78.92
77626;BME280;66794;43.764;10.436;2023-02-01T10:54:36;102565.28;;;10.35;79.85
77626;BME280;66794;43.764;10.436;2023-02-01T10:57:07;102506.78;;;9.47;81.88
77626;BME280;66794;43.764;10.436;2023-02-01T10:59:32;102533.44;;;9.84;81.87
77626;BME280;66794;43.764;10.436;2023-02-01T11:02:13;102548.16;;;10.02;81.39
77626;BME280;66794;43.764;10.436;2023-02-01T11:04:41;102523.94;;;10.00;80.59
77626;BME280;66794;43.764;10.436;2023-02-01T11:07:23;102539.78;;;10.05;81.71
77626;BME280;66794;43.764;10.436;2023-02-01T11:09:51;102513.88;;;9.91;82.37
77626;BME280;66794;43.764;10.436;2023-02-01T11:12:35;102523.47;;;9.95;81.84
77626;BME280;66794;43.764;10.436;2023-02-01T11:17:46;102493.19;;;10.01;80.95
77626;BME280;66794;43.764;10.436;2023-02-01T11:20:18;102530.56;;;10.40;80.91
77626;BME280;66794;43.764;10.436;2023-02-01T11:22:48;102515.94;;;10.52;80.71
77626;BME280;66794;43.764;10.436;2023-02-01T11:25:16;102483.00;;;10.77;79.66
77626;BME280;66794;43.764;10.436;2023-02-01T11:27:43;102501.06;;;10.98;79.75
77626;BME280;66794;43.764;10.436;2023-02-01T11:30:26;102523.03;;;11.25;78.80
77626;BME280;66794;43.764;10.436;2023-02-01T11:32:52;102495.16;;;11.23;77.49
77626;BME280;66794;43.764;10.436;2023-02-01T11:35:20;102526.06;;;11.51;77.53
77626;BME280;66794;43.764;10.436;2023-02-01T11:37:52;102472.06;;;11.29;77.91
77626;BME280;66794;43.764;10.436;2023-02-01T11:42:59;102481.72;;;12.01;75.49
77626;BME280;66794;43.764;10.436;2023-02-01T11:45:30;102458.88;;;11.94;73.84
77626;BME280;66794;43.764;10.436;2023-02-01T11:47:57;102432.97;;;11.61;74.53
77626;BME280;66794;43.764;10.436;2023-02-01T11:50:44;102471.59;;;11.83;75.61
77626;BME280;66794;43.764;10.436;2023-02-01T11:54:07;102479.69;;;11.74;76.43
77626;BME280;66794;43.764;10.436;2023-02-01T11:56:36;102464.13;;;11.76;76.35
77626;BME280;66794;43.764;10.436;2023-02-01T12:07:04;102473.59;;;12.01;77.38
77626;BME280;66794;43.764;10.436;2023-02-01T12:10:57;102470.59;;;11.94;75.89
77626;BME280;66794;43.764;10.436;2023-02-01T12:21:48;102464.31;;;12.13;75.48
77626;BME280;66794;43.764;10.436;2023-02-01T12:24:44;102456.97;;;12.33;76.09
77626;BME280;66794;43.764;10.436;2023-02-01T12:41:07;102452.84;;;12.29;74.15
77626;BME280;66794;43.764;10.436;2023-02-01T12:43:59;102431.47;;;12.44;73.93
77626;BME280;66794;43.764;10.436;2023-02-01T12:46:35;102375.66;;;12.12;73.71
77626;BME280;66794;43.764;10.436;2023-02-01T12:49:20;102453.63;;;12.49;73.74
77626;BME280;66794;43.764;10.436;2023-02-01T12:51:52;102451.28;;;12.73;73.41
77626;BME280;66794;43.764;10.436;2023-02-01T12:54:41;102439.81;;;12.32;73.01
77626;BME280;66794;43.764;10.436;2023-02-01T12:57:15;102458.47;;;12.55;73.57
77626;BME280;66794;43.764;10.436;2023-02-01T13:05:28;102441.00;;;12.67;73.41
77626;BME280;66794;43.764;10.436;2023-02-01T13:08:11;102420.94;;;12.41;74.45
77626;BME280;66794;43.764;10.436;2023-02-01T13:10:56;102426.53;;;12.29;74.92
77626;BME280;66794;43.764;10.436;2023-02-01T13:13:36;102428.75;;;12.44;74.78
77626;BME280;66794;43.764;10.436;2023-02-01T13:18:55;102426.03;;;12.44;75.65
77626;BME280;66794;43.764;10.436;2023-02-01T13:21:29;102432.94;;;12.38;75.94
77626;BME280;66794;43.764;10.436;2023-02-01T13:23:57;102418.38;;;12.29;76.35
77626;BME280;66794;43.764;10.436;2023-02-01T13:26:23;102420.50;;;12.45;75.47
77626;BME280;66794;43.764;10.436;2023-02-01T13:28:57;102414.91;;;12.47;75.80
77626;BME280;66794;43.764;10.436;2023-02-01T13:42:33;102400.94;;;12.69;74.92
77626;BME280;66794;43.764;10.436;2023-02-01T13:45:05;102393.63;;;12.70;74.48
77626;BME280;66794;43.764;10.436;2023-02-01T13:47:41;102335.94;;;12.48;74.42
77626;BME280;66794;43.764;10.436;2023-02-01T13:53:01;102315.69;;;12.33;75.58
77626;BME280;66794;43.764;10.436;2023-02-01T13:55:34;102323.53;;;12.46;75.94
77626;BME280;66794;43.764;10.436;2023-02-01T13:58:13;102374.81;;;12.86;75.32
77626;BME280;66794;43.764;10.436;2023-02-01T14:00:41;102379.88;;;12.99;75.02
77626;BME280;66794;43.764;10.436;2023-02-01T14:03:15;102376.16;;;13.00;75.04
77626;BME280;66794;43.764;10.436;2023-02-01T14:08:11;102392.09;;;12.95;75.56
77626;BME280;66794;43.764;10.436;2023-02-01T14:26:24;102381.09;;;12.59;79.05
77626;BME280;66794;43.764;10.436;2023-02-01T14:28:57;102384.22;;;12.64;79.34
77626;BME280;66794;43.764;10.436;2023-02-01T14:37:07;102378.31;;;12.41;80.51
77626;BME280;66794;43.764;10.436;2023-02-01T14:47:55;102407.59;;;12.47;79.62
77626;BME280;66794;43.764;10.436;2023-02-01T14:50:44;102408.19;;;12.41;78.68
77626;BME280;66794;43.764;10.436;2023-02-01T14:55:56;102426.34;;;12.41;78.94
77626;BME280;66794;43.764;10.436;2023-02-01T15:01:31;102432.94;;;12.38;79.89
77626;BME280;66794;43.764;10.436;2023-02-01T15:06:48;102434.19;;;12.44;78.66
77626;BME280;66794;43.764;10.436;2023-02-01T15:09:36;102430.78;;;12.42;78.16
77626;BME280;66794;43.764;10.436;2023-02-01T15:17:19;102420.75;;;12.52;77.33
77626;BME280;66794;43.764;10.436;2023-02-01T15:22:37;102399.59;;;12.46;77.68
77626;BME280;66794;43.764;10.436;2023-02-01T15:25:03;102429.25;;;12.67;77.02
77626;BME280;66794;43.764;10.436;2023-02-01T15:27:29;102375.75;;;12.40;77.28
77626;BME280;66794;43.764;10.436;2023-02-01T15:30:17;102419.19;;;12.77;76.15
77626;BME280;66794;43.764;10.436;2023-02-01T15:32:43;102386.84;;;12.56;77.36
77626;BME280;66794;43.764;10.436;2023-02-01T15:35:34;102416.88;;;12.82;77.44
77626;BME280;66794;43.764;10.436;2023-02-01T15:41:21;102401.94;;;12.96;77.03
77626;BME280;66794;43.764;10.436;2023-02-01T15:46:30;102410.50;;;12.73;78.78